Time;durP1;ratioP1;P1;durP2;ratioP2;P2;SDS_P1;SDS_P2;PMS_P1;PMS_P2;Temp;Humidity;BMP_temperature;BMP_pressure;BME280_temperature;BME280_humidity;BME280_pressure;Samples;Min_cycle;Max_cycle;Signal;HPM_P1;HPM_P2
2021/05/28 00:02:12;;;;;;;6.70;2.37;;;12.10;99.90;;;;;;4993239;28;20183;-64
2021/05/28 00:04:38;;;;;;;8.53;2.53;;;12.10;99.90;;;;;;5023915;28;20205;-65
2021/05/28 00:07:04;;;;;;;7.00;2.40;;;12.10;99.90;;;;;;5032872;28;20528;-64
2021/05/28 00:09:31;;;;;;;6.53;2.70;;;12.10;99.90;;;;;;5018403;28;20701;-65
2021/05/28 00:11:57;;;;;;;6.90;2.75;;;12.00;99.90;;;;;;5002904;28;20197;-64
2021/05/28 00:14:22;;;;;;;6.23;2.20;;;12.00;99.90;;;;;;5021093;28;20676;-65
2021/05/28 00:16:48;;;;;;;6.50;2.30;;;12.00;99.90;;;;;;5036088;28;20298;-64
2021/05/28 00:19:14;;;;;;;7.47;2.53;;;12.00;99.90;;;;;;5025090;28;20270;-65
2021/05/28 00:21:39;;;;;;;9.30;3.07;;;11.90;99.90;;;;;;5016230;28;20179;-65
2021/05/28 00:24:06;;;;;;;8.10;3.10;;;11.90;99.90;;;;;;5024596;28;20277;-65
2021/05/28 00:26:32;;;;;;;7.13;2.45;;;11.90;99.90;;;;;;5012149;28;20270;-64
2021/05/28 00:28:58;;;;;;;6.83;2.63;;;11.90;99.90;;;;;;5011522;28;20252;-64
2021/05/28 00:31:24;;;;;;;8.18;3.17;;;11.80;99.90;;;;;;5036052;28;20443;-66
2021/05/28 00:33:49;;;;;;;6.47;2.22;;;11.80;99.90;;;;;;5028780;28;20265;-64
2021/05/28 00:36:17;;;;;;;7.57;2.90;;;11.80;99.90;;;;;;4996597;28;20286;-66
2021/05/28 00:38:42;;;;;;;8.02;2.75;;;11.70;99.90;;;;;;5004939;28;20202;-63
2021/05/28 00:41:09;;;;;;;7.83;3.13;;;11.70;99.90;;;;;;5008454;28;20190;-65
2021/05/28 00:43:34;;;;;;;8.90;3.63;;;11.60;99.90;;;;;;5001483;28;20553;-63
2021/05/28 00:46:00;;;;;;;7.97;3.07;;;11.60;99.90;;;;;;5035669;28;20602;-65
2021/05/28 00:48:26;;;;;;;7.03;2.50;;;11.60;99.90;;;;;;5033872;28;20198;-66
2021/05/28 00:50:51;;;;;;;10.27;3.50;;;11.70;99.90;;;;;;5015797;28;20171;-65
2021/05/28 00:53:17;;;;;;;8.10;2.33;;;11.70;99.90;;;;;;5015270;28;20449;-64
2021/05/28 00:55:44;;;;;;;12.37;3.17;;;11.80;99.90;;;;;;5009496;28;20748;-65
2021/05/28 00:58:10;;;;;;;8.75;3.35;;;11.70;99.90;;;;;;4997966;28;20204;-63
2021/05/28 01:00:36;;;;;;;7.13;2.70;;;11.70;99.90;;;;;;5015799;28;20232;-65
2021/05/28 01:03:02;;;;;;;7.80;2.47;;;11.70;99.90;;;;;;5015221;28;20167;-65
2021/05/28 01:05:28;;;;;;;7.80;2.50;;;11.70;99.90;;;;;;5034325;28;20213;-65
2021/05/28 01:07:54;;;;;;;6.70;2.53;;;11.80;99.90;;;;;;5035393;28;20227;-65
2021/05/28 01:10:20;;;;;;;8.67;3.10;;;11.80;99.90;;;;;;5015892;28;20191;-64
2021/05/28 01:12:46;;;;;;;7.33;2.40;;;11.70;99.90;;;;;;4995527;28;20515;-66
2021/05/28 01:15:12;;;;;;;6.70;2.23;;;11.70;99.90;;;;;;5027213;28;20457;-65
2021/05/28 01:17:38;;;;;;;7.13;2.47;;;11.70;99.90;;;;;;5033354;28;20456;-65
2021/05/28 01:20:08;;;;;;;6.90;2.47;;;11.80;99.90;;;;;;5021302;28;20324;-65
2021/05/28 01:22:34;;;;;;;7.18;2.22;;;11.80;99.90;;;;;;5015377;28;20827;-65
2021/05/28 01:25:00;;;;;;;7.07;2.13;;;11.80;99.90;;;;;;5015087;28;20199;-66
2021/05/28 01:27:29;;;;;;;7.25;2.45;;;11.80;99.90;;;;;;5015501;28;20410;-64
2021/05/28 01:29:55;;;;;;;6.65;2.20;;;11.80;99.90;;;;;;5027307;28;20214;-66
2021/05/28 01:32:21;;;;;;;6.73;1.87;;;11.80;99.90;;;;;;5030514;28;20663;-64
2021/05/28 01:34:46;;;;;;;7.83;1.93;;;11.80;99.90;;;;;;5007758;28;20481;-65
2021/05/28 01:37:12;;;;;;;8.90;2.47;;;11.80;99.90;;;;;;5014763;28;20198;-65
2021/05/28 01:39:50;;;;;;;7.13;2.00;;;11.80;99.90;;;;;;5023193;28;20197;-66
2021/05/28 01:42:17;;;;;;;5.93;1.75;;;11.80;99.90;;;;;;5034397;28;20181;-64
2021/05/28 01:44:44;;;;;;;6.78;2.00;;;11.90;99.90;;;;;;5025005;28;20209;-66
2021/05/28 01:47:11;;;;;;;6.20;2.10;;;11.90;99.90;;;;;;5013874;28;20195;-63
2021/05/28 01:49:40;;;;;;;6.97;2.13;;;11.80;99.90;;;;;;5021722;28;20560;-65
2021/05/28 01:52:07;;;;;;;6.47;1.80;;;11.90;99.90;;;;;;5034593;28;20177;-66
2021/05/28 01:54:40;;;;;;;6.40;2.20;;;11.90;99.90;;;;;;5026447;28;20200;-65
2021/05/28 01:57:08;;;;;;;6.20;1.60;;;11.90;99.90;;;;;;4999303;28;20225;-63
2021/05/28 01:59:34;;;;;;;6.55;1.98;;;11.90;99.90;;;;;;5007957;28;20198;-66
2021/05/28 02:01:59;;;;;;;8.40;2.13;;;11.90;99.90;;;;;;5034135;28;20181;-65
2021/05/28 02:04:25;;;;;;;6.43;2.10;;;11.90;99.90;;;;;;5028578;28;20195;-65
2021/05/28 02:06:52;;;;;;;7.40;2.40;;;11.90;99.90;;;;;;5014391;28;20335;-64
2021/05/28 02:09:18;;;;;;;7.13;2.50;;;11.90;99.90;;;;;;5017271;28;20257;-65
2021/05/28 02:11:44;;;;;;;6.43;2.05;;;11.90;99.90;;;;;;5005347;28;20606;-65
2021/05/28 02:14:10;;;;;;;8.63;2.42;;;11.90;99.90;;;;;;4999056;28;20206;-65
2021/05/28 02:16:37;;;;;;;7.10;2.80;;;11.90;99.90;;;;;;4999177;28;20547;-66
2021/05/28 02:19:04;;;;;;;6.43;2.30;;;11.90;99.90;;;;;;4996187;28;20456;-63
2021/05/28 02:21:30;;;;;;;7.82;2.60;;;12.00;99.90;;;;;;5034018;28;20174;-66
2021/05/28 02:23:56;;;;;;;7.80;1.95;;;11.90;99.90;;;;;;5031647;28;20285;-65
2021/05/28 02:26:22;;;;;;;7.22;2.20;;;11.90;99.90;;;;;;5006830;28;20175;-64
2021/05/28 02:28:48;;;;;;;7.97;2.27;;;11.80;99.90;;;;;;4996046;28;20179;-63
2021/05/28 02:31:14;;;;;;;6.40;2.13;;;11.80;99.90;;;;;;5033663;28;20413;-65
2021/05/28 02:33:39;;;;;;;6.30;1.87;;;11.80;99.90;;;;;;5032419;28;20196;-63
2021/05/28 02:36:06;;;;;;;6.80;2.27;;;11.80;99.90;;;;;;5013337;28;20185;-66
2021/05/28 02:38:32;;;;;;;6.38;1.98;;;11.80;99.90;;;;;;5013820;28;20564;-65
2021/05/28 02:40:58;;;;;;;7.10;2.97;;;11.80;99.90;;;;;;5031530;28;20185;-66
2021/05/28 02:43:24;;;;;;;6.90;1.90;;;11.80;99.90;;;;;;5033137;28;20416;-65
2021/05/28 02:45:51;;;;;;;6.70;2.67;;;11.80;99.90;;;;;;5016802;28;20522;-64
2021/05/28 02:48:17;;;;;;;6.43;2.22;;;11.80;99.90;;;;;;5013837;28;20608;-65
2021/05/28 02:50:43;;;;;;;5.85;1.58;;;11.80;99.90;;;;;;5015494;28;20253;-65
2021/05/28 02:53:10;;;;;;;6.63;1.80;;;11.80;99.90;;;;;;5013318;28;20266;-64
2021/05/28 02:55:36;;;;;;;6.47;2.35;;;11.80;99.90;;;;;;5027400;28;20248;-65
2021/05/28 02:58:01;;;;;;;6.20;1.80;;;11.80;99.90;;;;;;5028027;28;20688;-65
2021/05/28 03:00:27;;;;;;;7.77;2.13;;;11.80;99.90;;;;;;5013570;28;20629;-65
2021/05/28 03:02:53;;;;;;;9.30;2.23;;;11.80;99.90;;;;;;5016267;28;20171;-66
2021/05/28 03:05:18;;;;;;;6.80;2.37;;;11.80;99.90;;;;;;5000714;28;20699;-66
2021/05/28 03:07:44;;;;;;;7.50;3.00;;;11.70;99.90;;;;;;4996856;28;20266;-65
2021/05/28 03:10:11;;;;;;;6.23;1.80;;;11.70;99.90;;;;;;5026995;28;20678;-65
2021/05/28 03:12:37;;;;;;;6.63;2.15;;;11.70;99.90;;;;;;5013841;28;20511;-65
2021/05/28 03:15:03;;;;;;;7.47;2.65;;;11.70;99.90;;;;;;5032774;28;20198;-65
2021/05/28 03:17:29;;;;;;;6.93;2.42;;;11.60;99.90;;;;;;5019743;28;20558;-65
2021/05/28 03:19:55;;;;;;;6.87;2.47;;;11.60;99.90;;;;;;5013515;28;20182;-65
2021/05/28 03:22:36;;;;;;;9.03;3.40;;;11.50;99.90;;;;;;5024477;28;20201;-65
2021/05/28 03:25:03;;;;;;;7.40;1.98;;;11.50;99.90;;;;;;5018794;28;20281;-65
2021/05/28 03:27:29;;;;;;;8.20;3.15;;;11.50;99.90;;;;;;5017505;28;20579;-65
2021/05/28 03:29:54;;;;;;;7.70;1.87;;;11.50;99.90;;;;;;5016296;28;20182;-64
2021/05/28 03:32:20;;;;;;;8.40;2.10;;;11.50;99.90;;;;;;5023065;28;20260;-66
2021/05/28 03:34:46;;;;;;;6.70;2.40;;;11.50;99.90;;;;;;5032465;28;20198;-65
2021/05/28 03:37:12;;;;;;;6.90;2.73;;;11.50;99.90;;;;;;5024142;28;20206;-65
2021/05/28 03:39:38;;;;;;;7.03;2.30;;;11.60;99.90;;;;;;5007298;28;20172;-65
2021/05/28 03:42:03;;;;;;;6.73;2.70;;;11.50;99.90;;;;;;5007061;28;20178;-65
2021/05/28 03:44:29;;;;;;;8.07;2.20;;;11.40;99.90;;;;;;5032706;28;20503;-66
2021/05/28 03:46:55;;;;;;;7.10;2.40;;;11.40;99.90;;;;;;5031096;28;20432;-65
2021/05/28 03:49:21;;;;;;;10.30;3.07;;;11.40;99.90;;;;;;5016999;28;20436;-65
2021/05/28 03:51:47;;;;;;;9.00;2.50;;;11.40;99.90;;;;;;5020729;28;20640;-65
2021/05/28 03:54:12;;;;;;;6.20;1.45;;;11.40;99.90;;;;;;5028100;28;20274;-66
2021/05/28 03:56:38;;;;;;;8.20;1.90;;;11.30;99.90;;;;;;5002366;28;20270;-66
2021/05/28 03:59:04;;;;;;;6.63;2.20;;;11.30;99.90;;;;;;5018964;28;20236;-65
2021/05/28 04:01:30;;;;;;;6.30;2.03;;;11.30;99.90;;;;;;5035282;28;20174;-65
2021/05/28 04:03:55;;;;;;;6.73;1.93;;;11.20;99.90;;;;;;5001640;28;20238;-65
2021/05/28 04:06:21;;;;;;;5.80;1.90;;;11.20;99.90;;;;;;4995641;28;20650;-65
2021/05/28 04:08:47;;;;;;;6.00;2.00;;;11.20;99.90;;;;;;5034731;28;20261;-65
2021/05/28 04:11:12;;;;;;;5.63;1.50;;;11.20;99.90;;;;;;5036629;28;20537;-66
2021/05/28 04:13:38;;;;;;;8.70;3.10;;;11.20;99.90;;;;;;5017645;28;20267;-65
2021/05/28 04:16:04;;;;;;;9.67;2.13;;;11.20;99.90;;;;;;5016285;28;20171;-65
2021/05/28 04:18:29;;;;;;;7.03;1.03;;;11.20;99.90;;;;;;5006678;28;20214;-65
2021/05/28 04:20:55;;;;;;;6.20;1.83;;;11.20;99.90;;;;;;4996902;28;20494;-65
2021/05/28 04:23:22;;;;;;;9.43;2.20;;;11.20;99.90;;;;;;5025105;28;20170;-65
2021/05/28 04:25:48;;;;;;;7.28;1.38;;;11.20;99.90;;;;;;5014247;28;20197;-65
2021/05/28 04:28:14;;;;;;;7.03;2.92;;;11.20;99.90;;;;;;5029026;28;20269;-65
2021/05/28 04:30:40;;;;;;;6.93;2.92;;;11.20;99.90;;;;;;5008337;28;20183;-65
2021/05/28 04:33:06;;;;;;;7.30;2.88;;;11.20;99.90;;;;;;5018942;28;20548;-65
2021/05/28 04:35:32;;;;;;;6.87;2.10;;;11.30;99.90;;;;;;5035685;28;20220;-65
2021/05/28 04:37:58;;;;;;;6.57;1.95;;;11.30;99.90;;;;;;5024083;28;20214;-66
2021/05/28 04:40:24;;;;;;;8.20;3.30;;;11.30;99.90;;;;;;5015136;28;20191;-66
2021/05/28 04:42:49;;;;;;;7.20;2.03;;;11.50;99.90;;;;;;5024635;28;20513;-65
2021/05/28 04:45:15;;;;;;;5.73;1.80;;;11.60;99.90;;;;;;5015751;28;20542;-66
2021/05/28 04:47:41;;;;;;;6.27;1.90;;;11.60;99.90;;;;;;5015963;28;20183;-65
2021/05/28 04:50:07;;;;;;;7.80;2.67;;;11.70;99.90;;;;;;5015929;28;20618;-65
2021/05/28 04:52:33;;;;;;;9.45;2.30;;;11.80;99.90;;;;;;5022762;28;20214;-65
2021/05/28 04:54:59;;;;;;;13.20;3.03;;;11.90;99.90;;;;;;5035147;28;20621;-66
2021/05/28 04:57:24;;;;;;;6.27;2.20;;;11.90;99.90;;;;;;5022817;28;20666;-66
2021/05/28 04:59:50;;;;;;;6.90;2.10;;;12.00;99.90;;;;;;5010341;28;20639;-65
2021/05/28 05:02:16;;;;;;;8.40;2.33;;;12.00;99.90;;;;;;5024011;28;20192;-65
2021/05/28 05:04:42;;;;;;;6.55;2.70;;;12.10;99.90;;;;;;5034810;28;20194;-66
2021/05/28 05:07:07;;;;;;;8.33;2.10;;;12.10;99.90;;;;;;5029094;28;20556;-66
2021/05/28 05:09:33;;;;;;;7.33;2.07;;;12.20;99.90;;;;;;5035381;28;20286;-65
2021/05/28 05:11:59;;;;;;;7.23;2.90;;;12.30;99.90;;;;;;5028724;28;20657;-64
2021/05/28 05:14:24;;;;;;;8.50;3.00;;;12.40;99.90;;;;;;5014825;28;20596;-65
2021/05/28 05:16:50;;;;;;;6.73;1.73;;;12.40;99.90;;;;;;5019187;28;20262;-66
2021/05/28 05:19:16;;;;;;;9.17;3.17;;;12.40;99.90;;;;;;5035144;28;20621;-65
2021/05/28 05:21:41;;;;;;;7.20;3.50;;;12.40;99.90;;;;;;5020459;28;20184;-65
2021/05/28 05:24:08;;;;;;;6.50;2.40;;;12.50;99.90;;;;;;5034629;28;20215;-65
2021/05/28 05:26:34;;;;;;;9.00;2.90;;;12.50;99.90;;;;;;5019456;28;20180;-70
2021/05/28 05:28:59;;;;;;;7.13;2.27;;;12.60;99.90;;;;;;5014581;28;20928;-66
2021/05/28 05:31:25;;;;;;;8.63;3.30;;;12.70;99.90;;;;;;5022239;28;20189;-65
2021/05/28 05:33:51;;;;;;;6.73;2.30;;;12.70;99.90;;;;;;5034312;28;20179;-66
2021/05/28 05:36:17;;;;;;;7.37;2.63;;;12.70;99.90;;;;;;5021799;28;20442;-70
2021/05/28 05:38:42;;;;;;;7.97;2.77;;;12.80;99.90;;;;;;5014727;28;20496;-66
2021/05/28 05:41:08;;;;;;;10.40;3.00;;;12.90;99.90;;;;;;5025188;28;20183;-67
2021/05/28 05:43:34;;;;;;;8.10;3.43;;;13.00;99.90;;;;;;5034169;28;20214;-71
2021/05/28 05:46:01;;;;;;;8.37;3.13;;;13.00;99.90;;;;;;4997949;28;20451;-72
2021/05/28 05:48:27;;;;;;;7.60;2.90;;;13.10;99.90;;;;;;4995131;28;20787;-68
2021/05/28 05:50:53;;;;;;;7.73;3.63;;;13.00;99.90;;;;;;5029128;28;20429;-68
2021/05/28 05:53:18;;;;;;;7.40;2.90;;;13.00;99.90;;;;;;5034041;28;20304;-69
2021/05/28 05:55:45;;;;;;;7.43;3.13;;;13.00;99.90;;;;;;5017652;28;20634;-67
2021/05/28 05:58:10;;;;;;;7.50;2.90;;;13.10;99.90;;;;;;5014587;28;20202;-67
2021/05/28 06:00:36;;;;;;;7.30;2.90;;;13.20;99.90;;;;;;5001633;28;20449;-70
2021/05/28 06:03:03;;;;;;;5.93;1.90;;;13.40;99.90;;;;;;5015462;28;20176;-69
2021/05/28 06:05:29;;;;;;;7.77;2.67;;;13.50;99.90;;;;;;5017785;28;20603;-69
2021/05/28 06:07:54;;;;;;;10.57;4.20;;;13.70;99.90;;;;;;5024373;28;20535;-69
2021/05/28 06:10:20;;;;;;;7.13;2.70;;;14.00;99.90;;;;;;5019059;28;20228;-67
2021/05/28 06:12:45;;;;;;;8.47;3.37;;;14.10;99.90;;;;;;5024480;28;20213;-70
2021/05/28 06:15:11;;;;;;;9.77;3.23;;;14.10;99.90;;;;;;5021856;28;20240;-67
2021/05/28 06:17:37;;;;;;;7.73;3.47;;;14.20;99.90;;;;;;5011600;28;20229;-68
2021/05/28 06:20:04;;;;;;;9.93;2.93;;;14.20;99.90;;;;;;5029218;28;20207;-66
2021/05/28 06:22:31;;;;;;;8.53;3.50;;;14.10;99.90;;;;;;5013906;28;20544;-68
2021/05/28 06:24:57;;;;;;;8.47;3.40;;;14.10;99.90;;;;;;4992564;28;20868;-67
2021/05/28 06:27:22;;;;;;;8.50;2.97;;;14.10;99.90;;;;;;4992695;28;20422;-67
2021/05/28 06:29:48;;;;;;;11.13;3.20;;;14.20;99.90;;;;;;4993955;28;20266;-68
2021/05/28 06:32:14;;;;;;;10.30;2.90;;;14.30;99.90;;;;;;4993783;28;20214;-66
2021/05/28 06:34:40;;;;;;;7.90;3.47;;;14.30;99.90;;;;;;4993707;28;20206;-68
2021/05/28 06:37:05;;;;;;;8.40;2.83;;;14.30;99.90;;;;;;4993965;28;20414;-68
2021/05/28 06:39:31;;;;;;;10.40;4.27;;;14.30;99.90;;;;;;5008701;28;20174;-68
2021/05/28 06:41:57;;;;;;;7.17;2.57;;;14.50;99.90;;;;;;5013723;28;20254;-65
2021/05/28 06:44:26;;;;;;;7.30;3.30;;;14.60;99.90;;;;;;5013158;28;20441;-68
2021/05/28 06:46:52;;;;;;;7.33;3.50;;;14.90;99.90;;;;;;5013737;28;20179;-67
2021/05/28 06:49:18;;;;;;;10.87;3.80;;;15.10;99.90;;;;;;5013623;28;20402;-69
2021/05/28 06:51:45;;;;;;;10.83;3.97;;;15.30;99.90;;;;;;5013674;28;20436;-67
2021/05/28 06:54:12;;;;;;;6.53;3.03;;;15.20;99.90;;;;;;5013117;28;20547;-69
2021/05/28 06:56:38;;;;;;;7.57;2.97;;;15.20;99.90;;;;;;5013611;28;20405;-69
2021/05/28 06:59:06;;;;;;;6.77;3.70;;;15.20;99.90;;;;;;5013443;28;20453;-67
2021/05/28 07:01:32;;;;;;;7.70;3.27;;;15.30;99.90;;;;;;5007545;28;20430;-68
2021/05/28 07:04:01;;;;;;;6.20;2.60;;;15.40;99.90;;;;;;4991951;28;20450;-66
2021/05/28 07:06:27;;;;;;;9.17;3.30;;;15.40;99.90;;;;;;4993602;28;20481;-66
2021/05/28 07:08:53;;;;;;;10.90;3.30;;;15.50;99.90;;;;;;4993983;28;20415;-65
2021/05/28 07:11:19;;;;;;;6.60;2.80;;;15.60;99.90;;;;;;4994046;28;20418;-69
2021/05/28 07:13:44;;;;;;;6.70;3.27;;;15.70;99.90;;;;;;5008363;28;20681;-66
2021/05/28 07:16:10;;;;;;;7.80;3.63;;;15.90;99.90;;;;;;4993650;28;20176;-69
2021/05/28 07:18:36;;;;;;;7.33;2.97;;;16.00;99.90;;;;;;4993628;28;20202;-67
2021/05/28 07:21:02;;;;;;;10.50;3.17;;;16.10;99.90;;;;;;4997817;28;20173;-68
2021/05/28 07:23:29;;;;;;;5.93;2.97;;;16.30;99.90;;;;;;4997398;28;20182;-66
2021/05/28 07:25:56;;;;;;;5.23;1.83;;;16.50;99.90;;;;;;4997589;28;20523;-67
2021/05/28 07:28:21;;;;;;;5.60;2.40;;;16.80;99.90;;;;;;4997486;28;20409;-66
2021/05/28 07:30:48;;;;;;;11.47;5.10;;;17.10;99.90;;;;;;5000476;28;20429;-67
2021/05/28 07:33:13;;;;;;;9.03;3.17;;;17.40;99.90;;;;;;5016308;28;20206;-68
2021/05/28 07:35:39;;;;;;;5.57;2.30;;;17.70;99.90;;;;;;5016885;28;20460;-66
2021/05/28 07:38:05;;;;;;;7.00;3.13;;;18.00;99.90;;;;;;5017022;28;20508;-69
2021/05/28 07:40:30;;;;;;;5.90;2.20;;;18.10;99.90;;;;;;5016860;28;20175;-68
2021/05/28 07:42:57;;;;;;;6.73;2.57;;;18.30;99.80;;;;;;5015266;28;20187;-69
2021/05/28 07:45:23;;;;;;;5.57;2.63;;;18.50;98.20;;;;;;5015626;28;20437;-68
2021/05/28 07:47:48;;;;;;;5.40;2.33;;;18.70;97.60;;;;;;4997253;28;20407;-69
2021/05/28 07:50:14;;;;;;;5.13;2.07;;;19.00;98.00;;;;;;4997232;28;20176;-67
2021/05/28 07:52:40;;;;;;;5.30;2.37;;;19.20;97.90;;;;;;4997226;28;20189;-69
2021/05/28 07:55:07;;;;;;;5.80;2.13;;;19.40;96.60;;;;;;4996642;28;20487;-67
2021/05/28 07:57:33;;;;;;;5.10;1.67;;;19.40;96.40;;;;;;4996964;28;20514;-68
2021/05/28 07:59:58;;;;;;;5.20;2.30;;;19.30;96.30;;;;;;4997040;28;20498;-68
2021/05/28 08:02:25;;;;;;;6.07;2.83;;;19.10;96.30;;;;;;5014901;28;20565;-67
2021/05/28 08:04:51;;;;;;;5.80;2.77;;;18.70;96.60;;;;;;5014606;28;20609;-68
2021/05/28 08:07:16;;;;;;;6.70;2.90;;;18.30;97.00;;;;;;5016751;28;20421;-68
2021/05/28 08:09:42;;;;;;;6.47;2.77;;;17.90;97.90;;;;;;5005740;28;20935;-69
2021/05/28 08:12:08;;;;;;;5.70;2.90;;;17.60;98.60;;;;;;4995487;28;20179;-68
2021/05/28 08:14:35;;;;;;;6.37;3.00;;;17.50;98.50;;;;;;4996350;28;20206;-70
2021/05/28 08:17:01;;;;;;;7.30;2.97;;;17.40;98.90;;;;;;4996507;28;20419;-67
2021/05/28 08:19:26;;;;;;;5.93;3.00;;;17.30;98.40;;;;;;4996868;28;20402;-68
2021/05/28 08:21:52;;;;;;;4.80;1.97;;;17.30;98.30;;;;;;5011209;28;20414;-66
2021/05/28 08:24:18;;;;;;;6.90;2.77;;;17.50;98.40;;;;;;5004998;28;20194;-68
2021/05/28 08:26:43;;;;;;;5.80;3.10;;;17.70;98.80;;;;;;5012318;28;20179;-66
2021/05/28 08:29:09;;;;;;;6.07;2.67;;;17.60;97.60;;;;;;4996467;28;20190;-67
2021/05/28 08:31:35;;;;;;;5.80;2.90;;;17.50;97.90;;;;;;4995812;28;20610;-67
2021/05/28 08:34:01;;;;;;;5.10;2.40;;;17.50;98.20;;;;;;4995894;28;20218;-66
2021/05/28 08:36:27;;;;;;;5.17;2.20;;;17.60;98.30;;;;;;4996356;28;20171;-66
2021/05/28 08:38:53;;;;;;;5.33;2.07;;;17.50;98.20;;;;;;5003514;28;20464;-68
2021/05/28 08:41:19;;;;;;;6.00;2.47;;;17.50;98.20;;;;;;5015828;28;20167;-68
2021/05/28 08:43:45;;;;;;;4.77;2.30;;;17.50;97.00;;;;;;5015330;28;20691;-66
2021/05/28 08:46:15;;;;;;;5.13;2.57;;;17.50;97.60;;;;;;5015724;28;20408;-69
2021/05/28 08:48:41;;;;;;;4.63;1.87;;;17.60;97.40;;;;;;5015688;28;20418;-67
2021/05/28 08:51:08;;;;;;;5.10;1.90;;;17.90;98.00;;;;;;5002176;28;20442;-67
2021/05/28 08:53:33;;;;;;;7.33;2.23;;;18.10;97.80;;;;;;4995960;28;20584;-66
2021/05/28 08:55:59;;;;;;;5.57;1.90;;;18.40;97.50;;;;;;4995998;28;20532;-66
2021/05/28 08:58:26;;;;;;;5.93;2.50;;;18.80;97.60;;;;;;4995793;28;20199;-66
2021/05/28 09:00:52;;;;;;;6.87;2.63;;;19.20;95.90;;;;;;4995976;28;20507;-69
2021/05/28 09:03:22;;;;;;;6.93;2.33;;;19.40;95.50;;;;;;4995620;28;20499;-66
2021/05/28 09:05:49;;;;;;;6.93;2.33;;;19.50;95.40;;;;;;4995781;28;20204;-70
2021/05/28 09:08:24;;;;;;;4.83;1.87;;;19.70;93.90;;;;;;4996479;28;20790;-68
2021/05/28 09:10:50;;;;;;;5.17;2.40;;;19.60;93.00;;;;;;4996432;28;20786;-70
2021/05/28 09:13:21;;;;;;;5.50;2.43;;;19.40;93.40;;;;;;4999785;28;20447;-68
2021/05/28 09:15:49;;;;;;;4.50;1.80;;;19.20;94.00;;;;;;5015052;28;20666;-69
2021/05/28 09:18:16;;;;;;;5.10;2.60;;;19.20;93.60;;;;;;5015262;28;20451;-67
2021/05/28 09:20:54;;;;;;;5.17;1.80;;;19.30;93.30;;;;;;5015097;28;20402;-68
2021/05/28 09:23:20;;;;;;;5.20;2.47;;;19.50;93.80;;;;;;5014206;28;20433;-69
2021/05/28 09:25:57;;;;;;;6.57;2.73;;;19.80;92.90;;;;;;5015006;28;20438;-70
2021/05/28 09:28:24;;;;;;;5.30;1.77;;;19.90;92.30;;;;;;5015248;28;20211;-67
2021/05/28 09:30:56;;;;;;;9.50;3.70;;;20.00;91.60;;;;;;5015067;28;20419;-67
2021/05/28 09:33:23;;;;;;;5.20;2.50;;;19.90;92.50;;;;;;5014731;28;20460;-68
2021/05/28 09:35:50;;;;;;;4.63;1.87;;;19.90;92.10;;;;;;5014188;28;20465;-68
2021/05/28 09:38:24;;;;;;;5.00;2.50;;;19.80;91.50;;;;;;5014466;28;20536;-66
2021/05/28 09:40:50;;;;;;;5.03;2.20;;;19.90;92.00;;;;;;5003298;28;20780;-69
2021/05/28 09:43:24;;;;;;;4.67;2.00;;;20.10;91.40;;;;;;4994946;28;20413;-69
2021/05/28 09:45:50;;;;;;;4.80;2.00;;;20.40;90.70;;;;;;4994886;28;20436;-67
2021/05/28 09:48:15;;;;;;;4.40;2.10;;;20.60;90.60;;;;;;4995362;28;20411;-68
2021/05/28 09:50:55;;;;;;;4.70;1.67;;;20.50;89.70;;;;;;4995346;28;20189;-67
2021/05/28 09:53:29;;;;;;;4.43;1.70;;;20.40;90.10;;;;;;4993455;28;20682;-68
2021/05/28 09:55:56;;;;;;;5.07;2.00;;;20.60;89.40;;;;;;4995039;28;20527;-69
2021/05/28 09:58:22;;;;;;;4.90;2.20;;;20.60;87.40;;;;;;4994818;28;20466;-68
2021/05/28 10:00:48;;;;;;;5.47;2.00;;;20.90;87.20;;;;;;4994843;28;20761;-69
2021/05/28 10:03:26;;;;;;;5.07;2.13;;;21.10;90.10;;;;;;4994482;28;20422;-68
2021/05/28 10:05:55;;;;;;;4.40;1.80;;;21.50;90.10;;;;;;4998704;28;20468;-68
2021/05/28 10:08:23;;;;;;;6.40;2.50;;;21.20;87.70;;;;;;5014510;28;20414;-68
2021/05/28 10:10:50;;;;;;;4.67;1.83;;;21.10;86.60;;;;;;5014271;28;20414;-66
2021/05/28 10:13:18;;;;;;;3.90;1.30;;;21.20;87.80;;;;;;5013894;28;20410;-68
2021/05/28 10:15:54;;;;;;;5.50;2.90;;;21.00;87.70;;;;;;5003486;28;20520;-68
2021/05/28 10:18:20;;;;;;;4.23;1.80;;;20.90;85.10;;;;;;4994851;28;20462;-68
2021/05/28 10:20:51;;;;;;;4.67;1.70;;;20.70;83.20;;;;;;4994751;28;20481;-68
2021/05/28 10:23:17;;;;;;;4.40;1.80;;;20.40;85.50;;;;;;4994625;28;20750;-68
2021/05/28 10:25:44;;;;;;;6.27;1.70;;;20.20;84.10;;;;;;4994325;28;20445;-67
2021/05/28 10:28:20;;;;;;;5.80;1.90;;;20.20;85.30;;;;;;4994495;28;20433;-67
2021/05/28 10:30:48;;;;;;;4.33;1.90;;;20.30;86.40;;;;;;5012699;28;20795;-67
2021/05/28 10:33:24;;;;;;;4.20;1.53;;;20.40;84.40;;;;;;5013555;28;20976;-67
2021/05/28 10:36:10;;;;;;;4.03;1.40;;;21.20;88.30;;;;;;5013792;28;20436;-69
2021/05/28 10:38:43;;;;;;;4.40;1.43;;;22.30;81.90;;;;;;4999674;28;21017;-65
2021/05/28 10:41:11;;;;;;;3.90;1.40;;;23.20;79.10;;;;;;4994045;28;20802;-67
2021/05/28 10:43:59;;;;;;;4.17;1.60;;;24.00;74.20;;;;;;4993689;28;20499;-68
2021/05/28 10:46:25;;;;;;;4.17;1.93;;;24.60;74.40;;;;;;4994234;28;20458;-67
2021/05/28 10:48:56;;;;;;;4.47;2.17;;;24.10;71.90;;;;;;4994118;28;20393;-66
2021/05/28 10:51:43;;;;;;;3.90;1.57;;;23.70;72.80;;;;;;4994061;28;20570;-68
2021/05/28 10:54:08;;;;;;;5.33;2.83;;;23.30;73.30;;;;;;4982789;28;20432;-67
2021/05/28 10:56:37;;;;;;;5.37;2.40;;;22.80;76.10;;;;;;4994273;28;20423;-66
2021/05/28 10:59:14;;;;;;;4.20;1.80;;;22.30;78.60;;;;;;4993958;28;20203;-67
2021/05/28 11:01:47;;;;;;;4.23;1.90;;;22.10;77.90;;;;;;4994163;28;20825;-67
2021/05/28 11:04:23;;;;;;;5.10;1.53;;;22.10;77.90;;;;;;4993428;28;20474;-70
2021/05/28 11:06:55;;;;;;;4.10;1.83;;;21.90;75.20;;;;;;4993855;28;20793;-68
2021/05/28 11:09:40;;;;;;;4.00;1.60;;;21.70;74.50;;;;;;4994026;28;20834;-67
2021/05/28 11:12:16;;;;;;;4.17;1.70;;;21.30;72.70;;;;;;4993919;28;20413;-68
2021/05/28 11:15:01;;;;;;;4.20;2.00;;;20.80;73.50;;;;;;4993411;28;20432;-67
2021/05/28 11:17:27;;;;;;;3.67;1.43;;;20.30;75.80;;;;;;5010930;28;20470;-67
2021/05/28 11:20:00;;;;;;;6.70;2.63;;;20.00;77.10;;;;;;5013085;28;20943;-66
2021/05/28 11:22:30;;;;;;;4.20;1.60;;;19.70;78.30;;;;;;5013288;28;20402;-68
2021/05/28 11:25:00;;;;;;;5.23;2.53;;;19.50;79.40;;;;;;5012763;28;20827;-65
2021/05/28 11:27:26;;;;;;;4.63;1.93;;;19.40;80.40;;;;;;4995927;28;20538;-68
2021/05/28 11:30:16;;;;;;;4.27;1.97;;;19.40;81.70;;;;;;5011856;28;20468;-66
2021/05/28 11:32:44;;;;;;;3.90;1.30;;;19.30;83.90;;;;;;4972969;28;20554;-68
2021/05/28 11:35:52;;;;;;;4.60;1.77;;;19.20;83.60;;;;;;4993675;28;20790;-66
2021/05/28 11:38:33;;;;;;;3.90;1.47;;;19.10;82.30;;;;;;4952870;29;20507;-67
2021/05/28 11:40:59;;;;;;;3.93;1.67;;;19.00;85.20;;;;;;4989789;28;20936;-69
2021/05/28 11:43:25;;;;;;;5.30;1.70;;;19.00;85.70;;;;;;4993528;28;20422;-67
2021/05/28 11:45:53;;;;;;;5.77;1.37;;;18.90;83.20;;;;;;4994802;28;20485;-67
2021/05/28 11:48:23;;;;;;;4.07;1.40;;;19.00;84.50;;;;;;5012590;28;20186;-67
2021/05/28 11:50:57;;;;;;;4.30;1.30;;;19.10;83.20;;;;;;4995529;28;20505;-67
2021/05/28 11:53:28;;;;;;;4.33;1.30;;;19.20;85.90;;;;;;5013126;28;20500;-67
2021/05/28 11:55:56;;;;;;;4.47;1.70;;;19.30;81.40;;;;;;5013076;28;20441;-68
2021/05/28 11:58:31;;;;;;;5.30;1.50;;;19.50;81.90;;;;;;5013041;28;20500;-67
2021/05/28 12:00:57;;;;;;;4.60;1.53;;;19.40;78.50;;;;;;5012608;28;20479;-68
2021/05/28 12:03:24;;;;;;;4.17;1.43;;;19.20;79.40;;;;;;5012575;28;20815;-67
2021/05/28 12:05:52;;;;;;;4.13;1.57;;;19.10;81.10;;;;;;5013089;28;20520;-68
2021/05/28 12:08:29;;;;;;;3.73;1.00;;;19.10;82.00;;;;;;5016558;28;20415;-68
2021/05/28 12:10:57;;;;;;;3.73;1.27;;;19.20;77.70;;;;;;5016300;28;20423;-67
2021/05/28 12:13:37;;;;;;;3.40;0.90;;;19.20;81.00;;;;;;5016032;28;20495;-66
2021/05/28 12:16:09;;;;;;;3.50;1.07;;;19.20;75.80;;;;;;4999253;28;20545;-69
2021/05/28 12:18:42;;;;;;;3.70;0.87;;;19.20;78.10;;;;;;4996610;28;20969;-66
2021/05/28 12:21:20;;;;;;;3.60;1.10;;;19.30;77.70;;;;;;4996721;28;20412;-67
2021/05/28 12:23:53;;;;;;;4.73;0.90;;;19.40;83.80;;;;;;4996611;28;20497;-68
2021/05/28 12:26:22;;;;;;;4.00;1.13;;;19.70;80.70;;;;;;4996724;28;20490;-68
2021/05/28 12:28:54;;;;;;;4.70;1.23;;;20.00;81.30;;;;;;4996488;28;20909;-67
2021/05/28 12:31:23;;;;;;;3.67;1.27;;;20.20;80.60;;;;;;5011700;28;20498;-69
2021/05/28 12:34:02;;;;;;;3.50;1.07;;;20.20;78.30;;;;;;4996095;28;20439;-66
2021/05/28 12:36:35;;;;;;;5.00;1.80;;;20.20;77.50;;;;;;4995225;28;20426;-67
2021/05/28 12:39:05;;;;;;;4.33;1.03;;;20.10;78.20;;;;;;5011174;28;20453;-65
2021/05/28 12:41:32;;;;;;;4.23;1.70;;;19.60;79.20;;;;;;5016037;28;20792;-67
2021/05/28 12:43:59;;;;;;;4.20;1.40;;;19.40;82.90;;;;;;5015420;28;20430;-68
2021/05/28 12:46:34;;;;;;;3.67;1.23;;;19.10;80.40;;;;;;5015769;28;20409;-66
2021/05/28 12:49:05;;;;;;;3.77;1.37;;;19.00;80.80;;;;;;5015822;28;20432;-69